Aviation Digital Data Service (ADDS)

Output produced by METARs form (1709 UTC 24 April 2017)
found at http://www.aviationweather.gov/adds/metars/
 
UBBB 241700Z 35008KT CAVOK 10/05 Q1017 R88/CLRD// NOSIG
TAF UBBB 241702Z 2418/2518 35012KT 9999 FEW050CB BKN100 TX17/2510Z TN05/2502Z 
     PROB40 
     TEMPO 2418/2424 02016KT -TSRA SCT010 SCT030CB OVC100 
     BECMG 2500/2502 33024G34KT 
     TEMPO 2502/2518 36030G40KT -SHRA FEW040CB BKN040
       
UBBG 241700Z 29014KT 9999 OVC083 16/M03 Q1017 R30/CLRD// NOSIG
TAF UBBG 241700Z 2418/2518 29010KT 9999 SCT040 BKN080 TX18/2512Z TN08/2502Z 
     TEMPO 2419/2423 VRB12KT SCT030CB OVC060 
     TEMPO 2506/2512 33012KT -RA OVC020
       
UBBL 241700Z 19004KT 9999 SCT100 11/08 Q1019 R15/CLRD// RMK MT OP
TAF UBBL 241701Z 2418/2518 12010KT 9999 FEW030CB BKN100 TX19/2511Z TN08/2503Z 
     PROB40 
     TEMPO 2418/2424 VRB18KT -TSRA SCT030CB OVC030 
     BECMG 2500/2502 35012KT
       
UBBN 241700Z 13008KT 9999 NSC 14/02 Q1010 R32L/CLRD// NOSIG RMK MT OP QFE684
TAF UBBN 241700Z 2418/2518 08010KT 9999 FEW050 SCT100 TX20/2512Z TN08/2502Z 
     TEMPO 2418/2506 13014KT SCT040CB BKN080
       
UBBQ 241700Z 14005KT 9999 OVC042 13/06 Q1018 R16/////// NOSIG RMK MT OBSC
TAF UBBQ 241659Z 2418/2518 14010KT 9999 SCT030CB BKN030 TX18/2510Z TN08/2503Z 
     TEMPO 2418/2424 VRB18KT -TSRA SCT008 BKN020CB OVC020
       
UBBY 241700Z 07006KT 9999 SCT045CB BKN070 13/06 Q1020 R33/////// NOSIG RMK MT OP
TAF UBBY 241700Z 2418/2503 VRB04KT 9999 SCT040CB BKN070
       
UBEE 241500Z 00000KT 9999 FEW040CB OVC100 16/11 Q1014 R30/190065 NOSIG
TAF UBEE 241400Z 2415/2424 VRB04KT 9999 FEW050CB OVC100 
     TEMPO 2415/2420 VRB10KT -TSRA SCT030CB OVC060 
       
UBBB 241700Z 35008KT CAVOK 10/05 Q1017 R88/CLRD// NOSIG
TAF UBBB 241702Z 2418/2518 35012KT 9999 FEW050CB BKN100 TX17/2510Z TN05/2502Z 
     PROB40 
     TEMPO 2418/2424 02016KT -TSRA SCT010 SCT030CB OVC100 
     BECMG 2500/2502 33024G34KT 
     TEMPO 2502/2518 36030G40KT -SHRA FEW040CB BKN040
       
UBBG 241700Z 29014KT 9999 OVC083 16/M03 Q1017 R30/CLRD// NOSIG
TAF UBBG 241700Z 2418/2518 29010KT 9999 SCT040 BKN080 TX18/2512Z TN08/2502Z 
     TEMPO 2419/2423 VRB12KT SCT030CB OVC060 
     TEMPO 2506/2512 33012KT -RA OVC020